createdAt,value
2022-07-31T00:00:19.726Z,13.53
2022-07-31T00:04:25.656Z,13.13
2022-07-31T00:08:27.817Z,14.27
2022-07-31T00:12:30.293Z,14.03
2022-07-31T00:16:32.492Z,15.60
2022-07-31T00:20:44.721Z,12.80
2022-07-31T00:24:47.203Z,16.53
2022-07-31T00:28:49.920Z,14.23
2022-07-31T00:32:52.276Z,11.03
2022-07-31T00:36:54.923Z,11.83
2022-07-31T00:40:57.252Z,15.23
2022-07-31T00:45:00.492Z,16.10
2022-07-31T00:49:02.741Z,15.43
2022-07-31T00:53:05.422Z,19.03
2022-07-31T00:57:07.715Z,17.57
2022-07-31T01:01:10.179Z,14.90
2022-07-31T01:05:12.408Z,18.93
2022-07-31T01:09:15.671Z,15.83
2022-07-31T01:13:54.065Z,18.73
2022-07-31T01:17:57.232Z,17.07
2022-07-31T01:22:35.129Z,19.20
2022-07-31T01:27:11.460Z,18.97
2022-07-31T01:31:27.044Z,15.33
2022-07-31T01:35:46.004Z,14.43
2022-07-31T01:39:55.337Z,19.80
2022-07-31T01:43:59.681Z,17.03
2022-07-31T01:48:05.141Z,13.80
2022-07-31T01:52:13.457Z,13.97
2022-07-31T01:56:18.950Z,16.60
2022-07-31T02:05:11.563Z,14.27
2022-07-31T02:09:15.378Z,17.03
2022-07-31T02:13:18.540Z,15.93
2022-07-31T02:17:22.662Z,14.53
2022-07-31T02:21:46.262Z,14.93
2022-07-31T02:25:48.603Z,16.67
2022-07-31T02:29:51.197Z,14.90
2022-07-31T02:33:54.672Z,17.67
2022-07-31T02:37:59.188Z,15.07
2022-07-31T02:42:03.892Z,18.60
2022-07-31T02:46:07.871Z,16.93
2022-07-31T02:50:36.827Z,17.33
2022-07-31T02:54:42.864Z,18.27
2022-07-31T02:58:47.043Z,16.07
2022-07-31T03:02:58.843Z,14.77
2022-07-31T03:07:02.577Z,14.50
2022-07-31T03:11:05.229Z,14.07
2022-07-31T03:16:00.799Z,18.00
2022-07-31T03:20:06.291Z,15.83
2022-07-31T03:24:09.027Z,16.27
2022-07-31T03:28:11.597Z,13.03
2022-07-31T03:32:13.731Z,15.90
2022-07-31T03:36:15.885Z,15.33
2022-07-31T03:40:33.706Z,16.67
2022-07-31T03:44:37.303Z,13.57
2022-07-31T03:48:39.421Z,12.47
2022-07-31T03:52:42.909Z,14.73
2022-07-31T03:56:48.646Z,11.90
2022-07-31T04:00:52.668Z,12.90
2022-07-31T04:04:57.704Z,13.57
2022-07-31T04:09:10.529Z,12.47
2022-07-31T04:13:23.515Z,12.23
2022-07-31T04:17:26.381Z,11.30
2022-07-31T04:21:33.200Z,10.83
2022-07-31T04:25:35.340Z,8.57
2022-07-31T04:29:49.266Z,8.23
2022-07-31T04:33:56.299Z,8.30
2022-07-31T04:37:59.301Z,6.77
2022-07-31T04:42:09.531Z,7.50
2022-07-31T04:46:17.703Z,7.72
2022-07-31T04:50:20.890Z,6.45
2022-07-31T04:54:34.189Z,6.05
2022-07-31T04:58:37.014Z,6.43
2022-07-31T05:02:40.755Z,5.10
2022-07-31T05:06:50.141Z,5.65
2022-07-31T05:11:28.091Z,4.57
2022-07-31T05:15:30.307Z,4.88
2022-07-31T05:19:32.300Z,4.32
2022-07-31T05:23:55.653Z,5.38
2022-07-31T05:28:30.096Z,5.55
2022-07-31T05:32:33.749Z,5.07
2022-07-31T05:36:35.814Z,4.45
2022-07-31T05:40:38.524Z,4.13
2022-07-31T05:45:59.786Z,5.35
2022-07-31T05:50:01.877Z,3.97
2022-07-31T05:54:04.399Z,4.00
2022-07-31T05:58:25.118Z,3.92
2022-07-31T06:02:27.117Z,3.90
2022-07-31T06:06:47.509Z,3.20
2022-07-31T06:10:49.870Z,3.95
2022-07-31T06:14:52.216Z,3.97
2022-07-31T06:19:28.884Z,4.40
2022-07-31T06:23:32.305Z,4.80
2022-07-31T06:28:10.555Z,4.35
2022-07-31T06:32:14.810Z,4.93
2022-07-31T06:36:18.822Z,4.60
2022-07-31T06:40:34.360Z,4.50
2022-07-31T06:45:00.814Z,4.23
2022-07-31T06:49:21.661Z,4.17
2022-07-31T06:53:26.906Z,4.10
2022-07-31T06:57:29.108Z,4.70
2022-07-31T07:01:31.471Z,3.90
2022-07-31T07:05:34.813Z,3.70
2022-07-31T07:09:38.274Z,4.53
2022-07-31T07:13:45.536Z,4.30
2022-07-31T07:17:50.663Z,3.93
2022-07-31T07:22:01.735Z,4.37
2022-07-31T07:26:05.178Z,4.33
2022-07-31T07:30:07.938Z,3.70
2022-07-31T07:34:10.103Z,3.03
2022-07-31T07:38:12.699Z,3.73
2022-07-31T07:42:18.127Z,3.33
2022-07-31T07:46:22.779Z,3.63
2022-07-31T07:50:54.040Z,3.57
2022-07-31T07:55:09.398Z,3.93
2022-07-31T07:59:34.755Z,3.70
2022-07-31T08:03:55.875Z,3.60
2022-07-31T08:07:58.107Z,3.50
2022-07-31T08:12:20.293Z,3.63
2022-07-31T08:16:46.172Z,3.60
2022-07-31T08:20:50.500Z,3.43
2022-07-31T08:24:53.754Z,3.10
2022-07-31T08:28:56.358Z,3.03
2022-07-31T08:33:01.925Z,3.33
2022-07-31T08:38:01.677Z,3.30
2022-07-31T08:41:44.652Z,3.23
2022-07-31T08:45:50.240Z,2.80
2022-07-31T08:50:03.228Z,3.80
2022-07-31T08:54:07.880Z,2.77
2022-07-31T08:58:19.299Z,2.73
2022-07-31T09:02:24.136Z,2.73
2022-07-31T09:06:52.510Z,3.10
2022-07-31T09:11:22.574Z,2.57
2022-07-31T09:15:38.554Z,2.47
2022-07-31T09:19:54.109Z,2.10
2022-07-31T09:24:11.000Z,2.50
2022-07-31T09:28:13.195Z,2.73
2022-07-31T09:32:20.551Z,2.40
2022-07-31T09:36:43.843Z,2.30
2022-07-31T09:41:55.910Z,2.07
2022-07-31T09:46:01.447Z,3.30
2022-07-31T09:50:05.295Z,2.77
2022-07-31T09:54:09.278Z,2.20
2022-07-31T09:58:31.564Z,2.53
2022-07-31T10:02:35.297Z,2.57
2022-07-31T10:06:39.105Z,2.20
2022-07-31T10:10:46.704Z,2.10
2022-07-31T10:15:11.824Z,1.90
2022-07-31T10:19:15.901Z,2.00
2022-07-31T10:23:58.342Z,2.23
2022-07-31T10:28:02.263Z,2.07
2022-07-31T10:32:06.662Z,2.03
2022-07-31T10:36:18.736Z,1.83
2022-07-31T10:40:49.618Z,2.47
2022-07-31T10:45:42.542Z,2.53
2022-07-31T10:49:58.610Z,2.93
2022-07-31T10:54:42.721Z,2.00
2022-07-31T10:59:05.048Z,2.40
2022-07-31T11:03:44.345Z,2.07
2022-07-31T11:08:07.924Z,2.10
2022-07-31T11:12:29.851Z,1.90
2022-07-31T11:16:51.808Z,1.93
2022-07-31T11:21:37.229Z,1.70
2022-07-31T11:25:38.812Z,1.90
2022-07-31T11:30:00.869Z,1.60
2022-07-31T11:34:04.736Z,1.67
2022-07-31T11:38:08.353Z,1.73
2022-07-31T11:42:10.378Z,2.13
2022-07-31T11:46:13.845Z,1.67
2022-07-31T11:50:16.067Z,1.80
2022-07-31T11:54:25.553Z,1.70
2022-07-31T11:58:29.738Z,2.23
2022-07-31T12:02:33.307Z,1.90
2022-07-31T12:06:36.437Z,1.70
2022-07-31T12:10:40.253Z,1.53
2022-07-31T12:14:42.395Z,1.77
2022-07-31T12:19:00.808Z,1.57
2022-07-31T12:23:05.721Z,1.70
2022-07-31T12:27:07.945Z,1.50
2022-07-31T12:31:09.990Z,1.60
2022-07-31T12:35:12.589Z,1.20
2022-07-31T12:39:14.538Z,1.40
2022-07-31T12:43:24.547Z,1.70
2022-07-31T12:47:30.282Z,1.80
2022-07-31T12:51:46.250Z,1.40
2022-07-31T12:55:49.451Z,1.80
2022-07-31T12:59:51.622Z,1.40
2022-07-31T13:03:55.677Z,1.50
2022-07-31T13:07:57.934Z,4.60
2022-07-31T13:12:00.076Z,2.40
2022-07-31T13:16:02.123Z,2.00
2022-07-31T13:20:05.612Z,1.73
2022-07-31T13:24:09.395Z,3.17
2022-07-31T13:28:11.438Z,1.70
2022-07-31T13:32:14.310Z,1.50
2022-07-31T13:36:16.577Z,1.83
2022-07-31T13:41:02.609Z,1.80
2022-07-31T13:45:08.362Z,1.70
2022-07-31T13:49:11.818Z,1.60
2022-07-31T13:53:13.834Z,1.90
2022-07-31T13:57:16.117Z,1.60
2022-07-31T14:01:18.493Z,1.50
2022-07-31T14:05:46.848Z,1.83
2022-07-31T14:09:54.746Z,1.50
2022-07-31T14:13:58.197Z,1.43
2022-07-31T14:18:04.236Z,1.60
2022-07-31T14:22:11.213Z,1.70
2022-07-31T14:26:13.965Z,1.63
2022-07-31T14:30:45.815Z,1.97
2022-07-31T14:34:54.537Z,1.70
2022-07-31T14:38:56.621Z,1.60
2022-07-31T14:42:59.564Z,1.30
2022-07-31T14:47:01.766Z,1.43
2022-07-31T14:51:04.541Z,1.70
2022-07-31T14:55:31.922Z,29.30
2022-07-31T14:59:35.279Z,5.07
2022-07-31T15:03:37.394Z,4.37
2022-07-31T15:07:45.894Z,1.87
2022-07-31T15:12:01.187Z,1.20
2022-07-31T15:16:05.260Z,1.33
2022-07-31T15:20:57.729Z,1.57
2022-07-31T15:24:59.885Z,1.90
2022-07-31T15:29:02.178Z,1.73
2022-07-31T15:33:04.774Z,1.60
2022-07-31T15:37:07.201Z,1.80
2022-07-31T15:41:09.697Z,1.60
2022-07-31T15:45:26.943Z,1.93
2022-07-31T15:49:29.445Z,1.60
2022-07-31T15:53:45.557Z,1.37
2022-07-31T15:57:47.492Z,1.60
2022-07-31T16:01:49.446Z,1.67
2022-07-31T16:05:55.981Z,1.67
2022-07-31T16:10:01.011Z,1.33
2022-07-31T16:14:45.783Z,1.50
2022-07-31T16:18:48.583Z,1.67
2022-07-31T16:22:54.610Z,1.63
2022-07-31T16:26:56.518Z,1.30
2022-07-31T16:30:59.007Z,1.40
2022-07-31T16:35:01.734Z,1.57
2022-07-31T16:39:51.251Z,1.63
2022-07-31T16:43:54.264Z,1.37
2022-07-31T16:47:57.857Z,1.57
2022-07-31T16:51:59.788Z,1.60
2022-07-31T16:56:02.420Z,1.23
2022-07-31T17:00:42.162Z,1.50
2022-07-31T17:04:45.835Z,1.23
2022-07-31T17:08:48.180Z,1.57
2022-07-31T17:12:51.484Z,1.30
2022-07-31T17:16:55.333Z,1.40
2022-07-31T17:20:58.455Z,1.50
2022-07-31T17:25:00.894Z,1.33
2022-07-31T17:29:03.324Z,1.70
2022-07-31T17:33:05.598Z,1.80
2022-07-31T17:37:08.087Z,1.23
2022-07-31T17:41:25.348Z,1.43
2022-07-31T17:45:37.170Z,1.50
2022-07-31T17:49:50.775Z,1.57
2022-07-31T17:53:55.444Z,1.63
2022-07-31T17:58:01.575Z,2.00
2022-07-31T18:02:05.495Z,1.90
2022-07-31T18:06:09.715Z,1.23
2022-07-31T18:10:12.394Z,1.90
2022-07-31T18:14:14.308Z,1.70
2022-07-31T18:18:20.055Z,1.70
2022-07-31T18:22:22.333Z,1.77
2022-07-31T18:26:27.487Z,2.20
2022-07-31T18:30:33.745Z,1.40
2022-07-31T18:34:41.045Z,1.67
2022-07-31T18:38:45.975Z,2.27
2022-07-31T18:42:52.437Z,1.97
2022-07-31T18:46:55.914Z,1.60
2022-07-31T18:51:04.566Z,1.90
2022-07-31T18:55:10.142Z,1.53
2022-07-31T18:59:15.020Z,1.60
2022-07-31T19:03:23.992Z,1.57
2022-07-31T19:07:41.903Z,1.77
2022-07-31T19:11:50.702Z,1.80
2022-07-31T19:16:01.513Z,1.70
2022-07-31T19:20:14.961Z,1.93
2022-07-31T19:24:41.865Z,1.73
2022-07-31T19:28:56.769Z,2.07
2022-07-31T19:33:01.332Z,2.17
2022-07-31T19:37:03.611Z,1.87
2022-07-31T19:41:06.329Z,2.47
2022-07-31T19:45:10.331Z,2.27
2022-07-31T19:49:12.857Z,2.00
2022-07-31T19:53:18.074Z,1.90
2022-07-31T19:57:31.672Z,2.00
2022-07-31T20:01:40.991Z,2.03
2022-07-31T20:05:49.035Z,2.47
2022-07-31T20:09:52.432Z,1.83
2022-07-31T20:14:06.485Z,1.77
2022-07-31T20:18:23.642Z,1.90
2022-07-31T20:22:31.725Z,1.83
2022-07-31T20:26:36.853Z,2.33
2022-07-31T20:30:39.925Z,1.80
2022-07-31T20:34:42.116Z,1.80
2022-07-31T20:38:44.035Z,2.20
2022-07-31T20:42:45.953Z,2.33
2022-07-31T20:46:48.256Z,1.90
2022-07-31T20:50:50.719Z,2.37
2022-07-31T20:54:53.015Z,2.20
2022-07-31T20:58:55.489Z,2.17
2022-07-31T21:02:57.864Z,1.63
2022-07-31T21:07:00.079Z,2.03
2022-07-31T21:11:02.292Z,2.17
2022-07-31T21:15:05.682Z,2.03
2022-07-31T21:19:28.025Z,2.00
2022-07-31T21:23:30.241Z,2.00
2022-07-31T21:27:33.591Z,1.87
2022-07-31T21:31:36.501Z,2.40
2022-07-31T21:35:53.564Z,1.90
2022-07-31T21:39:56.241Z,2.10
2022-07-31T21:43:59.862Z,2.30
2022-07-31T21:48:08.994Z,1.93
2022-07-31T21:52:11.695Z,2.20
2022-07-31T21:56:16.308Z,1.97
2022-07-31T22:00:30.840Z,2.47
2022-07-31T22:04:35.125Z,1.73
2022-07-31T22:08:37.617Z,2.00
2022-07-31T22:12:39.887Z,1.93
2022-07-31T22:16:42.957Z,2.00
2022-07-31T22:20:49.187Z,2.00
2022-07-31T22:24:51.418Z,1.90
2022-07-31T22:28:54.072Z,2.43
2022-07-31T22:33:01.353Z,1.47
2022-07-31T22:37:03.748Z,1.50
2022-07-31T22:41:05.958Z,1.60
2022-07-31T22:45:08.394Z,1.90
2022-07-31T22:49:11.570Z,1.70
2022-07-31T22:53:13.685Z,1.60
2022-07-31T22:57:16.309Z,1.57
2022-07-31T23:01:18.329Z,1.47
2022-07-31T23:05:21.529Z,1.73
2022-07-31T23:09:24.006Z,2.20
2022-07-31T23:13:25.986Z,2.07
2022-07-31T23:17:28.009Z,2.13
2022-07-31T23:21:30.051Z,2.30
2022-07-31T23:25:32.077Z,1.53
2022-07-31T23:29:41.501Z,1.83
2022-07-31T23:33:45.209Z,1.77
2022-07-31T23:37:48.349Z,1.57
2022-07-31T23:42:10.178Z,1.60
2022-07-31T23:46:12.405Z,1.90
2022-07-31T23:50:18.904Z,1.53
2022-07-31T23:54:20.931Z,1.93
2022-07-31T23:58:22.896Z,1.93
